sensor_id;sensor_type;location;lat;lon;timestamp;P1;durP1;ratioP1;P2;durP2;ratioP2
26756;SDS011;23848;49.798;10.228;2023-06-24T00:00:25;7.82;;;5.30;;
26756;SDS011;23848;49.798;10.228;2023-06-24T00:02:55;8.40;;;5.53;;
26756;SDS011;23848;49.798;10.228;2023-06-24T00:05:24;9.25;;;5.53;;
26756;SDS011;23848;49.798;10.228;2023-06-24T00:07:52;8.43;;;6.40;;
26756;SDS011;23848;49.798;10.228;2023-06-24T00:10:23;8.10;;;6.13;;
26756;SDS011;23848;49.798;10.228;2023-06-24T00:12:51;8.93;;;6.20;;
26756;SDS011;23848;49.798;10.228;2023-06-24T00:15:20;8.15;;;5.88;;
26756;SDS011;23848;49.798;10.228;2023-06-24T00:17:48;7.10;;;5.70;;
26756;SDS011;23848;49.798;10.228;2023-06-24T00:20:18;9.73;;;6.07;;
26756;SDS011;23848;49.798;10.228;2023-06-24T00:22:47;10.43;;;6.25;;
26756;SDS011;23848;49.798;10.228;2023-06-24T00:25:16;8.30;;;6.35;;
26756;SDS011;23848;49.798;10.228;2023-06-24T00:27:44;8.43;;;6.25;;
26756;SDS011;23848;49.798;10.228;2023-06-24T00:30:13;8.43;;;7.22;;
26756;SDS011;23848;49.798;10.228;2023-06-24T00:32:41;8.93;;;6.43;;
26756;SDS011;23848;49.798;10.228;2023-06-24T00:35:10;10.15;;;7.25;;
26756;SDS011;23848;49.798;10.228;2023-06-24T00:37:39;7.95;;;6.63;;
26756;SDS011;23848;49.798;10.228;2023-06-24T00:40:12;8.43;;;6.63;;
26756;SDS011;23848;49.798;10.228;2023-06-24T00:42:43;11.18;;;6.82;;
26756;SDS011;23848;49.798;10.228;2023-06-24T00:45:12;10.57;;;6.32;;
26756;SDS011;23848;49.798;10.228;2023-06-24T00:47:44;8.45;;;6.47;;
26756;SDS011;23848;49.798;10.228;2023-06-24T00:50:12;8.48;;;6.70;;
26756;SDS011;23848;49.798;10.228;2023-06-24T00:52:42;8.75;;;6.07;;
26756;SDS011;23848;49.798;10.228;2023-06-24T00:55:11;8.88;;;6.03;;
26756;SDS011;23848;49.798;10.228;2023-06-24T00:57:40;8.13;;;5.15;;
26756;SDS011;23848;49.798;10.228;2023-06-24T01:00:09;8.18;;;5.53;;
26756;SDS011;23848;49.798;10.228;2023-06-24T01:02:41;7.32;;;5.82;;
26756;SDS011;23848;49.798;10.228;2023-06-24T01:05:09;8.88;;;5.32;;
26756;SDS011;23848;49.798;10.228;2023-06-24T01:07:38;9.18;;;6.25;;
26756;SDS011;23848;49.798;10.228;2023-06-24T01:10:09;7.63;;;5.57;;
26756;SDS011;23848;49.798;10.228;2023-06-24T01:12:39;7.25;;;5.55;;
26756;SDS011;23848;49.798;10.228;2023-06-24T01:15:10;7.75;;;5.95;;
26756;SDS011;23848;49.798;10.228;2023-06-24T01:17:41;7.80;;;5.80;;
26756;SDS011;23848;49.798;10.228;2023-06-24T01:20:16;7.65;;;5.63;;
26756;SDS011;23848;49.798;10.228;2023-06-24T01:22:51;7.55;;;5.75;;
26756;SDS011;23848;49.798;10.228;2023-06-24T01:25:32;8.73;;;6.00;;
26756;SDS011;23848;49.798;10.228;2023-06-24T01:28:07;7.82;;;5.53;;
26756;SDS011;23848;49.798;10.228;2023-06-24T01:33:31;8.98;;;6.45;;
26756;SDS011;23848;49.798;10.228;2023-06-24T01:36:02;7.35;;;5.25;;
26756;SDS011;23848;49.798;10.228;2023-06-24T01:38:35;8.05;;;5.70;;
26756;SDS011;23848;49.798;10.228;2023-06-24T01:41:04;8.68;;;6.25;;
26756;SDS011;23848;49.798;10.228;2023-06-24T01:43:34;8.25;;;5.88;;
26756;SDS011;23848;49.798;10.228;2023-06-24T01:46:02;7.78;;;5.88;;
26756;SDS011;23848;49.798;10.228;2023-06-24T01:48:34;7.15;;;5.40;;
26756;SDS011;23848;49.798;10.228;2023-06-24T01:51:04;7.47;;;5.45;;
26756;SDS011;23848;49.798;10.228;2023-06-24T01:53:35;7.88;;;5.90;;
26756;SDS011;23848;49.798;10.228;2023-06-24T01:56:08;7.93;;;5.75;;
26756;SDS011;23848;49.798;10.228;2023-06-24T01:58:38;8.93;;;6.22;;
26756;SDS011;23848;49.798;10.228;2023-06-24T02:01:08;7.75;;;5.72;;
26756;SDS011;23848;49.798;10.228;2023-06-24T02:03:38;8.25;;;5.97;;
26756;SDS011;23848;49.798;10.228;2023-06-24T02:06:07;7.85;;;5.65;;
26756;SDS011;23848;49.798;10.228;2023-06-24T02:08:37;9.00;;;5.97;;
26756;SDS011;23848;49.798;10.228;2023-06-24T02:11:06;8.07;;;5.53;;
26756;SDS011;23848;49.798;10.228;2023-06-24T02:13:35;7.75;;;5.50;;
26756;SDS011;23848;49.798;10.228;2023-06-24T02:16:05;7.32;;;5.80;;
26756;SDS011;23848;49.798;10.228;2023-06-24T02:18:35;8.55;;;5.50;;
26756;SDS011;23848;49.798;10.228;2023-06-24T02:21:06;7.95;;;5.90;;
26756;SDS011;23848;49.798;10.228;2023-06-24T02:23:34;7.07;;;5.45;;
26756;SDS011;23848;49.798;10.228;2023-06-24T02:26:03;8.00;;;5.90;;
26756;SDS011;23848;49.798;10.228;2023-06-24T02:28:33;8.43;;;6.07;;
26756;SDS011;23848;49.798;10.228;2023-06-24T02:31:01;8.73;;;5.80;;
26756;SDS011;23848;49.798;10.228;2023-06-24T02:33:30;7.35;;;5.68;;
26756;SDS011;23848;49.798;10.228;2023-06-24T02:35:59;7.70;;;5.70;;
26756;SDS011;23848;49.798;10.228;2023-06-24T02:38:28;8.30;;;5.57;;
26756;SDS011;23848;49.798;10.228;2023-06-24T02:40:57;9.55;;;6.25;;
26756;SDS011;23848;49.798;10.228;2023-06-24T02:43:26;8.27;;;6.05;;
26756;SDS011;23848;49.798;10.228;2023-06-24T02:45:55;10.00;;;6.03;;
26756;SDS011;23848;49.798;10.228;2023-06-24T02:48:23;7.72;;;5.03;;
26756;SDS011;23848;49.798;10.228;2023-06-24T02:50:52;9.20;;;5.90;;
26756;SDS011;23848;49.798;10.228;2023-06-24T02:53:21;7.57;;;5.72;;
26756;SDS011;23848;49.798;10.228;2023-06-24T02:55:50;8.63;;;6.00;;
26756;SDS011;23848;49.798;10.228;2023-06-24T02:58:20;8.43;;;5.80;;
26756;SDS011;23848;49.798;10.228;2023-06-24T03:00:49;7.43;;;5.75;;
26756;SDS011;23848;49.798;10.228;2023-06-24T03:03:18;7.63;;;5.45;;
26756;SDS011;23848;49.798;10.228;2023-06-24T03:05:46;7.10;;;5.68;;
26756;SDS011;23848;49.798;10.228;2023-06-24T03:08:16;7.72;;;5.40;;
26756;SDS011;23848;49.798;10.228;2023-06-24T03:10:45;6.40;;;5.40;;
26756;SDS011;23848;49.798;10.228;2023-06-24T03:13:15;8.38;;;6.00;;
26756;SDS011;23848;49.798;10.228;2023-06-24T03:15:43;7.20;;;5.75;;
26756;SDS011;23848;49.798;10.228;2023-06-24T03:18:11;8.95;;;5.63;;
26756;SDS011;23848;49.798;10.228;2023-06-24T03:20:40;9.13;;;5.88;;
26756;SDS011;23848;49.798;10.228;2023-06-24T03:23:08;8.40;;;5.95;;
26756;SDS011;23848;49.798;10.228;2023-06-24T03:25:37;8.05;;;6.35;;
26756;SDS011;23848;49.798;10.228;2023-06-24T03:28:05;8.65;;;6.22;;
26756;SDS011;23848;49.798;10.228;2023-06-24T03:30:35;7.88;;;6.15;;
26756;SDS011;23848;49.798;10.228;2023-06-24T03:33:05;9.07;;;6.82;;
26756;SDS011;23848;49.798;10.228;2023-06-24T03:35:34;10.95;;;6.97;;
26756;SDS011;23848;49.798;10.228;2023-06-24T03:38:03;8.88;;;6.53;;
26756;SDS011;23848;49.798;10.228;2023-06-24T03:40:31;7.72;;;6.05;;
26756;SDS011;23848;49.798;10.228;2023-06-24T03:42:59;9.80;;;6.68;;
26756;SDS011;23848;49.798;10.228;2023-06-24T03:45:28;10.57;;;6.43;;
26756;SDS011;23848;49.798;10.228;2023-06-24T03:47:57;9.07;;;6.00;;
26756;SDS011;23848;49.798;10.228;2023-06-24T03:50:26;9.40;;;6.85;;
26756;SDS011;23848;49.798;10.228;2023-06-24T03:52:56;8.38;;;6.47;;
26756;SDS011;23848;49.798;10.228;2023-06-24T03:55:24;9.40;;;7.03;;
26756;SDS011;23848;49.798;10.228;2023-06-24T03:57:52;8.27;;;6.53;;
26756;SDS011;23848;49.798;10.228;2023-06-24T04:00:21;8.32;;;6.05;;
26756;SDS011;23848;49.798;10.228;2023-06-24T04:02:49;9.25;;;6.40;;
26756;SDS011;23848;49.798;10.228;2023-06-24T04:05:20;8.73;;;6.20;;
26756;SDS011;23848;49.798;10.228;2023-06-24T04:07:49;10.75;;;6.15;;
26756;SDS011;23848;49.798;10.228;2023-06-24T04:10:18;9.50;;;6.82;;
26756;SDS011;23848;49.798;10.228;2023-06-24T04:12:47;8.55;;;6.05;;
26756;SDS011;23848;49.798;10.228;2023-06-24T04:15:15;8.40;;;6.72;;
26756;SDS011;23848;49.798;10.228;2023-06-24T04:17:44;9.07;;;7.00;;
26756;SDS011;23848;49.798;10.228;2023-06-24T04:20:12;8.10;;;6.43;;
26756;SDS011;23848;49.798;10.228;2023-06-24T04:22:42;10.88;;;7.05;;
26756;SDS011;23848;49.798;10.228;2023-06-24T04:25:10;9.27;;;6.90;;
26756;SDS011;23848;49.798;10.228;2023-06-24T04:27:38;8.75;;;6.50;;
26756;SDS011;23848;49.798;10.228;2023-06-24T04:30:07;10.77;;;7.45;;
26756;SDS011;23848;49.798;10.228;2023-06-24T04:32:35;8.55;;;6.85;;
26756;SDS011;23848;49.798;10.228;2023-06-24T04:35:04;9.93;;;7.13;;
26756;SDS011;23848;49.798;10.228;2023-06-24T04:37:32;9.85;;;7.70;;
26756;SDS011;23848;49.798;10.228;2023-06-24T04:40:02;11.85;;;7.53;;
26756;SDS011;23848;49.798;10.228;2023-06-24T04:42:31;9.93;;;7.63;;
26756;SDS011;23848;49.798;10.228;2023-06-24T04:44:59;13.13;;;7.63;;
26756;SDS011;23848;49.798;10.228;2023-06-24T04:47:31;11.68;;;7.82;;
26756;SDS011;23848;49.798;10.228;2023-06-24T04:49:59;11.02;;;7.50;;
26756;SDS011;23848;49.798;10.228;2023-06-24T04:52:28;11.23;;;7.55;;
26756;SDS011;23848;49.798;10.228;2023-06-24T04:54:56;12.40;;;8.13;;
26756;SDS011;23848;49.798;10.228;2023-06-24T04:57:27;9.73;;;7.53;;
26756;SDS011;23848;49.798;10.228;2023-06-24T04:59:56;9.68;;;7.55;;
26756;SDS011;23848;49.798;10.228;2023-06-24T05:02:24;10.07;;;8.02;;
26756;SDS011;23848;49.798;10.228;2023-06-24T05:04:53;10.15;;;8.43;;
26756;SDS011;23848;49.798;10.228;2023-06-24T05:07:21;10.60;;;8.32;;
26756;SDS011;23848;49.798;10.228;2023-06-24T05:09:50;9.52;;;7.38;;
26756;SDS011;23848;49.798;10.228;2023-06-24T05:12:18;8.55;;;7.05;;
26756;SDS011;23848;49.798;10.228;2023-06-24T05:14:50;10.75;;;7.90;;
26756;SDS011;23848;49.798;10.228;2023-06-24T05:17:19;10.80;;;8.13;;
26756;SDS011;23848;49.798;10.228;2023-06-24T05:19:47;9.32;;;7.65;;
26756;SDS011;23848;49.798;10.228;2023-06-24T05:22:16;12.35;;;7.82;;
26756;SDS011;23848;49.798;10.228;2023-06-24T05:24:44;10.32;;;7.97;;
26756;SDS011;23848;49.798;10.228;2023-06-24T05:27:12;12.70;;;8.77;;
26756;SDS011;23848;49.798;10.228;2023-06-24T05:29:41;12.75;;;8.25;;
26756;SDS011;23848;49.798;10.228;2023-06-24T05:32:10;9.00;;;7.07;;
26756;SDS011;23848;49.798;10.228;2023-06-24T05:34:39;7.93;;;6.68;;
26756;SDS011;23848;49.798;10.228;2023-06-24T05:37:07;8.68;;;6.07;;
26756;SDS011;23848;49.798;10.228;2023-06-24T05:39:36;10.40;;;6.97;;
26756;SDS011;23848;49.798;10.228;2023-06-24T05:42:04;8.32;;;6.45;;
26756;SDS011;23848;49.798;10.228;2023-06-24T05:44:33;10.25;;;6.22;;
26756;SDS011;23848;49.798;10.228;2023-06-24T05:47:01;9.90;;;6.93;;
26756;SDS011;23848;49.798;10.228;2023-06-24T05:49:31;8.13;;;6.32;;
26756;SDS011;23848;49.798;10.228;2023-06-24T05:51:59;11.20;;;6.60;;
26756;SDS011;23848;49.798;10.228;2023-06-24T05:54:28;9.45;;;7.30;;
26756;SDS011;23848;49.798;10.228;2023-06-24T05:56:56;8.60;;;6.47;;
26756;SDS011;23848;49.798;10.228;2023-06-24T05:59:24;10.82;;;7.03;;
26756;SDS011;23848;49.798;10.228;2023-06-24T06:01:53;10.38;;;7.18;;
26756;SDS011;23848;49.798;10.228;2023-06-24T06:04:21;10.23;;;7.68;;
26756;SDS011;23848;49.798;10.228;2023-06-24T06:06:51;9.10;;;6.82;;
26756;SDS011;23848;49.798;10.228;2023-06-24T06:09:19;10.52;;;6.55;;
26756;SDS011;23848;49.798;10.228;2023-06-24T06:11:48;9.05;;;5.97;;
26756;SDS011;23848;49.798;10.228;2023-06-24T06:14:16;8.90;;;6.45;;
26756;SDS011;23848;49.798;10.228;2023-06-24T06:16:45;8.98;;;6.45;;
26756;SDS011;23848;49.798;10.228;2023-06-24T06:19:13;8.70;;;6.15;;
26756;SDS011;23848;49.798;10.228;2023-06-24T06:21:41;9.00;;;6.35;;
26756;SDS011;23848;49.798;10.228;2023-06-24T06:24:11;8.63;;;6.03;;
26756;SDS011;23848;49.798;10.228;2023-06-24T06:26:41;7.88;;;5.90;;
26756;SDS011;23848;49.798;10.228;2023-06-24T06:29:10;7.40;;;6.07;;
26756;SDS011;23848;49.798;10.228;2023-06-24T06:31:38;9.60;;;6.40;;
26756;SDS011;23848;49.798;10.228;2023-06-24T06:34:07;8.23;;;6.28;;
26756;SDS011;23848;49.798;10.228;2023-06-24T06:36:35;7.45;;;5.78;;
26756;SDS011;23848;49.798;10.228;2023-06-24T06:39:04;7.68;;;5.80;;
26756;SDS011;23848;49.798;10.228;2023-06-24T06:41:34;8.40;;;5.78;;
26756;SDS011;23848;49.798;10.228;2023-06-24T06:44:02;7.68;;;5.45;;
26756;SDS011;23848;49.798;10.228;2023-06-24T06:46:30;7.25;;;5.40;;
26756;SDS011;23848;49.798;10.228;2023-06-24T06:48:59;7.93;;;5.35;;
26756;SDS011;23848;49.798;10.228;2023-06-24T06:51:27;8.90;;;5.90;;
26756;SDS011;23848;49.798;10.228;2023-06-24T06:53:55;7.72;;;5.75;;
26756;SDS011;23848;49.798;10.228;2023-06-24T06:56:24;9.13;;;6.43;;
26756;SDS011;23848;49.798;10.228;2023-06-24T06:58:54;7.00;;;5.30;;
26756;SDS011;23848;49.798;10.228;2023-06-24T07:01:22;8.05;;;5.15;;
26756;SDS011;23848;49.798;10.228;2023-06-24T07:03:53;9.55;;;5.20;;
26756;SDS011;23848;49.798;10.228;2023-06-24T07:06:21;6.68;;;5.40;;
26756;SDS011;23848;49.798;10.228;2023-06-24T07:08:50;6.38;;;4.90;;
26756;SDS011;23848;49.798;10.228;2023-06-24T07:11:18;7.00;;;5.32;;
26756;SDS011;23848;49.798;10.228;2023-06-24T07:13:47;8.02;;;6.00;;
26756;SDS011;23848;49.798;10.228;2023-06-24T07:16:18;8.48;;;5.13;;
26756;SDS011;23848;49.798;10.228;2023-06-24T07:18:46;8.32;;;5.13;;
26756;SDS011;23848;49.798;10.228;2023-06-24T07:21:17;8.70;;;5.57;;
26756;SDS011;23848;49.798;10.228;2023-06-24T07:23:45;7.20;;;4.93;;
26756;SDS011;23848;49.798;10.228;2023-06-24T07:26:14;8.50;;;4.85;;
26756;SDS011;23848;49.798;10.228;2023-06-24T07:28:42;6.60;;;4.57;;
26756;SDS011;23848;49.798;10.228;2023-06-24T07:31:29;7.60;;;5.47;;
26756;SDS011;23848;49.798;10.228;2023-06-24T07:33:57;6.25;;;4.68;;
26756;SDS011;23848;49.798;10.228;2023-06-24T07:36:25;7.05;;;4.93;;
26756;SDS011;23848;49.798;10.228;2023-06-24T07:38:54;7.07;;;5.05;;
26756;SDS011;23848;49.798;10.228;2023-06-24T07:41:22;7.18;;;4.45;;
26756;SDS011;23848;49.798;10.228;2023-06-24T07:43:50;8.95;;;4.72;;
26756;SDS011;23848;49.798;10.228;2023-06-24T07:46:19;6.70;;;4.68;;
26756;SDS011;23848;49.798;10.228;2023-06-24T07:48:49;5.38;;;3.90;;
26756;SDS011;23848;49.798;10.228;2023-06-24T07:51:17;7.22;;;5.13;;
26756;SDS011;23848;49.798;10.228;2023-06-24T07:53:46;7.53;;;4.82;;
26756;SDS011;23848;49.798;10.228;2023-06-24T07:56:14;8.02;;;4.90;;
26756;SDS011;23848;49.798;10.228;2023-06-24T07:58:43;7.20;;;5.22;;
26756;SDS011;23848;49.798;10.228;2023-06-24T08:01:11;6.10;;;4.22;;
26756;SDS011;23848;49.798;10.228;2023-06-24T08:03:39;6.65;;;3.80;;
26756;SDS011;23848;49.798;10.228;2023-06-24T08:06:09;8.63;;;5.47;;
26756;SDS011;23848;49.798;10.228;2023-06-24T08:08:38;7.35;;;5.00;;
26756;SDS011;23848;49.798;10.228;2023-06-24T08:11:06;7.57;;;4.40;;
26756;SDS011;23848;49.798;10.228;2023-06-24T08:13:35;6.13;;;4.63;;
26756;SDS011;23848;49.798;10.228;2023-06-24T08:16:03;6.93;;;4.13;;
26756;SDS011;23848;49.798;10.228;2023-06-24T08:18:31;6.40;;;3.90;;
26756;SDS011;23848;49.798;10.228;2023-06-24T08:21:00;6.63;;;4.47;;
26756;SDS011;23848;49.798;10.228;2023-06-24T08:23:30;7.53;;;4.38;;
26756;SDS011;23848;49.798;10.228;2023-06-24T08:25:58;6.97;;;4.10;;
26756;SDS011;23848;49.798;10.228;2023-06-24T08:31:10;5.82;;;4.30;;
26756;SDS011;23848;49.798;10.228;2023-06-24T08:33:38;11.38;;;4.45;;
26756;SDS011;23848;49.798;10.228;2023-06-24T08:36:07;7.90;;;4.93;;
26756;SDS011;23848;49.798;10.228;2023-06-24T08:40:01;5.93;;;4.18;;
26756;SDS011;23848;49.798;10.228;2023-06-24T08:42:32;7.47;;;4.38;;
26756;SDS011;23848;49.798;10.228;2023-06-24T08:45:00;5.57;;;4.25;;
26756;SDS011;23848;49.798;10.228;2023-06-24T08:47:29;8.20;;;4.55;;
26756;SDS011;23848;49.798;10.228;2023-06-24T08:50:00;6.22;;;4.25;;
26756;SDS011;23848;49.798;10.228;2023-06-24T08:52:32;6.53;;;4.00;;
26756;SDS011;23848;49.798;10.228;2023-06-24T08:55:05;5.70;;;3.95;;
26756;SDS011;23848;49.798;10.228;2023-06-24T08:57:37;6.30;;;4.07;;
26756;SDS011;23848;49.798;10.228;2023-06-24T09:00:06;6.05;;;3.90;;
26756;SDS011;23848;49.798;10.228;2023-06-24T09:02:36;5.15;;;3.53;;
26756;SDS011;23848;49.798;10.228;2023-06-24T09:05:05;5.75;;;3.88;;
26756;SDS011;23848;49.798;10.228;2023-06-24T09:07:34;5.68;;;3.65;;
26756;SDS011;23848;49.798;10.228;2023-06-24T09:10:02;6.03;;;3.45;;
26756;SDS011;23848;49.798;10.228;2023-06-24T09:12:32;5.28;;;3.17;;
26756;SDS011;23848;49.798;10.228;2023-06-24T09:15:02;5.75;;;3.30;;
26756;SDS011;23848;49.798;10.228;2023-06-24T09:17:31;8.15;;;3.90;;
26756;SDS011;23848;49.798;10.228;2023-06-24T09:20:03;5.10;;;3.58;;
26756;SDS011;23848;49.798;10.228;2023-06-24T09:22:32;5.50;;;3.88;;
26756;SDS011;23848;49.798;10.228;2023-06-24T09:25:00;4.63;;;3.53;;
26756;SDS011;23848;49.798;10.228;2023-06-24T10:11:19;6.43;;;3.35;;
26756;SDS011;23848;49.798;10.228;2023-06-24T10:13:48;5.63;;;3.33;;
26756;SDS011;23848;49.798;10.228;2023-06-24T10:16:16;4.00;;;2.90;;
26756;SDS011;23848;49.798;10.228;2023-06-24T10:18:45;8.00;;;3.05;;
26756;SDS011;23848;49.798;10.228;2023-06-24T10:21:14;5.20;;;3.28;;
26756;SDS011;23848;49.798;10.228;2023-06-24T10:23:51;5.17;;;3.27;;
26756;SDS011;23848;49.798;10.228;2023-06-24T10:26:25;4.72;;;3.03;;
26756;SDS011;23848;49.798;10.228;2023-06-24T10:29:13;3.78;;;3.00;;
26756;SDS011;23848;49.798;10.228;2023-06-24T10:31:53;4.40;;;2.65;;
26756;SDS011;23848;49.798;10.228;2023-06-24T10:34:28;3.47;;;2.45;;
26756;SDS011;23848;49.798;10.228;2023-06-24T10:36:59;3.95;;;2.30;;
26756;SDS011;23848;49.798;10.228;2023-06-24T10:39:34;3.17;;;1.92;;
26756;SDS011;23848;49.798;10.228;2023-06-24T10:44:54;3.47;;;2.30;;
26756;SDS011;23848;49.798;10.228;2023-06-24T10:47:23;5.43;;;2.88;;
26756;SDS011;23848;49.798;10.228;2023-06-24T10:49:53;4.72;;;2.45;;
26756;SDS011;23848;49.798;10.228;2023-06-24T10:52:21;4.47;;;2.50;;
26756;SDS011;23848;49.798;10.228;2023-06-24T10:54:50;5.63;;;2.80;;
26756;SDS011;23848;49.798;10.228;2023-06-24T10:57:23;4.93;;;2.47;;
26756;SDS011;23848;49.798;10.228;2023-06-24T10:59:54;4.30;;;2.50;;
26756;SDS011;23848;49.798;10.228;2023-06-24T11:02:25;4.53;;;2.63;;
26756;SDS011;23848;49.798;10.228;2023-06-24T11:04:54;4.00;;;2.55;;
26756;SDS011;23848;49.798;10.228;2023-06-24T11:07:24;4.35;;;2.20;;
26756;SDS011;23848;49.798;10.228;2023-06-24T11:09:53;4.18;;;2.42;;
26756;SDS011;23848;49.798;10.228;2023-06-24T11:12:23;3.80;;;2.53;;
26756;SDS011;23848;49.798;10.228;2023-06-24T11:14:56;3.78;;;2.63;;
26756;SDS011;23848;49.798;10.228;2023-06-24T11:17:25;2.97;;;2.30;;
26756;SDS011;23848;49.798;10.228;2023-06-24T11:19:53;4.45;;;2.47;;
26756;SDS011;23848;49.798;10.228;2023-06-24T11:22:21;4.10;;;2.03;;
26756;SDS011;23848;49.798;10.228;2023-06-24T11:24:52;3.45;;;2.05;;
26756;SDS011;23848;49.798;10.228;2023-06-24T11:27:30;4.40;;;2.00;;
26756;SDS011;23848;49.798;10.228;2023-06-24T11:30:35;2.80;;;1.85;;
26756;SDS011;23848;49.798;10.228;2023-06-24T11:33:09;4.45;;;2.28;;
26756;SDS011;23848;49.798;10.228;2023-06-24T11:35:37;3.63;;;2.10;;
26756;SDS011;23848;49.798;10.228;2023-06-24T11:38:05;3.20;;;2.10;;
26756;SDS011;23848;49.798;10.228;2023-06-24T11:40:34;3.80;;;2.22;;
26756;SDS011;23848;49.798;10.228;2023-06-24T11:43:03;4.40;;;2.78;;
26756;SDS011;23848;49.798;10.228;2023-06-24T11:45:31;3.00;;;1.90;;
26756;SDS011;23848;49.798;10.228;2023-06-24T11:48:04;5.35;;;1.85;;
26756;SDS011;23848;49.798;10.228;2023-06-24T11:50:35;3.13;;;2.00;;
26756;SDS011;23848;49.798;10.228;2023-06-24T11:53:05;4.28;;;2.30;;
26756;SDS011;23848;49.798;10.228;2023-06-24T11:55:33;4.00;;;2.28;;
26756;SDS011;23848;49.798;10.228;2023-06-24T11:58:02;3.97;;;2.15;;
26756;SDS011;23848;49.798;10.228;2023-06-24T12:00:32;3.13;;;2.28;;
26756;SDS011;23848;49.798;10.228;2023-06-24T12:03:05;3.25;;;2.22;;
26756;SDS011;23848;49.798;10.228;2023-06-24T12:05:38;4.65;;;2.10;;
26756;SDS011;23848;49.798;10.228;2023-06-24T12:08:12;3.55;;;2.30;;
26756;SDS011;23848;49.798;10.228;2023-06-24T12:10:43;3.88;;;2.10;;
26756;SDS011;23848;49.798;10.228;2023-06-24T12:13:13;3.88;;;2.10;;
26756;SDS011;23848;49.798;10.228;2023-06-24T12:18:15;4.10;;;2.40;;
26756;SDS011;23848;49.798;10.228;2023-06-24T12:20:43;2.97;;;2.03;;
26756;SDS011;23848;49.798;10.228;2023-06-24T12:23:12;4.18;;;2.30;;
26756;SDS011;23848;49.798;10.228;2023-06-24T12:25:40;3.10;;;2.10;;
26756;SDS011;23848;49.798;10.228;2023-06-24T12:28:09;2.83;;;1.70;;
26756;SDS011;23848;49.798;10.228;2023-06-24T12:30:37;4.00;;;2.28;;
26756;SDS011;23848;49.798;10.228;2023-06-24T12:33:05;3.60;;;2.30;;
26756;SDS011;23848;49.798;10.228;2023-06-24T12:35:36;4.30;;;2.50;;
26756;SDS011;23848;49.798;10.228;2023-06-24T12:38:04;3.08;;;2.00;;
26756;SDS011;23848;49.798;10.228;2023-06-24T12:40:32;3.30;;;2.42;;
26756;SDS011;23848;49.798;10.228;2023-06-24T12:43:03;3.97;;;2.30;;
26756;SDS011;23848;49.798;10.228;2023-06-24T12:45:31;3.25;;;2.05;;
26756;SDS011;23848;49.798;10.228;2023-06-24T12:48:00;3.28;;;2.17;;
26756;SDS011;23848;49.798;10.228;2023-06-24T12:50:28;3.25;;;2.22;;
26756;SDS011;23848;49.798;10.228;2023-06-24T12:53:01;4.10;;;2.17;;
26756;SDS011;23848;49.798;10.228;2023-06-24T12:55:30;3.25;;;2.25;;
26756;SDS011;23848;49.798;10.228;2023-06-24T12:57:58;3.97;;;2.78;;
26756;SDS011;23848;49.798;10.228;2023-06-24T13:00:26;3.30;;;2.10;;
26756;SDS011;23848;49.798;10.228;2023-06-24T13:02:55;3.97;;;2.40;;
26756;SDS011;23848;49.798;10.228;2023-06-24T13:05:23;3.45;;;2.20;;
26756;SDS011;23848;49.798;10.228;2023-06-24T13:07:52;4.93;;;2.67;;
26756;SDS011;23848;49.798;10.228;2023-06-24T13:10:21;3.30;;;2.22;;
26756;SDS011;23848;49.798;10.228;2023-06-24T13:12:49;4.60;;;2.25;;
26756;SDS011;23848;49.798;10.228;2023-06-24T13:15:18;4.30;;;2.70;;
26756;SDS011;23848;49.798;10.228;2023-06-24T13:17:46;3.80;;;2.30;;
26756;SDS011;23848;49.798;10.228;2023-06-24T13:20:15;3.22;;;2.15;;
26756;SDS011;23848;49.798;10.228;2023-06-24T13:22:43;3.63;;;2.30;;
26756;SDS011;23848;49.798;10.228;2023-06-24T13:25:11;4.55;;;2.40;;
26756;SDS011;23848;49.798;10.228;2023-06-24T13:27:43;3.35;;;2.13;;
26756;SDS011;23848;49.798;10.228;2023-06-24T13:30:12;4.13;;;2.30;;
26756;SDS011;23848;49.798;10.228;2023-06-24T13:32:42;3.42;;;2.10;;
26756;SDS011;23848;49.798;10.228;2023-06-24T13:35:11;3.88;;;2.42;;
26756;SDS011;23848;49.798;10.228;2023-06-24T13:37:39;4.65;;;2.55;;
26756;SDS011;23848;49.798;10.228;2023-06-24T13:40:08;4.53;;;2.17;;
26756;SDS011;23848;49.798;10.228;2023-06-24T13:42:37;3.22;;;2.15;;
26756;SDS011;23848;49.798;10.228;2023-06-24T13:45:08;5.72;;;2.60;;
26756;SDS011;23848;49.798;10.228;2023-06-24T13:47:36;3.65;;;2.42;;
26756;SDS011;23848;49.798;10.228;2023-06-24T13:50:07;3.63;;;2.25;;
26756;SDS011;23848;49.798;10.228;2023-06-24T13:52:35;3.40;;;2.40;;
26756;SDS011;23848;49.798;10.228;2023-06-24T13:55:04;5.75;;;2.25;;
26756;SDS011;23848;49.798;10.228;2023-06-24T13:57:33;3.60;;;2.35;;
26756;SDS011;23848;49.798;10.228;2023-06-24T14:00:01;3.33;;;2.35;;
26756;SDS011;23848;49.798;10.228;2023-06-24T14:02:31;3.67;;;2.80;;
26756;SDS011;23848;49.798;10.228;2023-06-24T14:05:01;3.92;;;2.67;;
26756;SDS011;23848;49.798;10.228;2023-06-24T14:07:29;4.85;;;2.50;;
26756;SDS011;23848;49.798;10.228;2023-06-24T14:09:58;3.17;;;2.28;;
26756;SDS011;23848;49.798;10.228;2023-06-24T14:12:26;3.85;;;2.60;;
26756;SDS011;23848;49.798;10.228;2023-06-24T14:14:54;4.18;;;2.47;;
26756;SDS011;23848;49.798;10.228;2023-06-24T14:17:23;4.07;;;2.72;;
26756;SDS011;23848;49.798;10.228;2023-06-24T14:19:54;4.25;;;2.42;;
26756;SDS011;23848;49.798;10.228;2023-06-24T14:22:26;4.05;;;2.67;;
26756;SDS011;23848;49.798;10.228;2023-06-24T14:24:54;3.97;;;2.63;;
26756;SDS011;23848;49.798;10.228;2023-06-24T14:27:22;3.95;;;2.55;;
26756;SDS011;23848;49.798;10.228;2023-06-24T14:29:51;3.38;;;2.40;;
26756;SDS011;23848;49.798;10.228;2023-06-24T14:32:19;3.47;;;2.40;;
26756;SDS011;23848;49.798;10.228;2023-06-24T14:34:47;4.10;;;2.85;;
26756;SDS011;23848;49.798;10.228;2023-06-24T14:37:16;5.68;;;3.20;;
26756;SDS011;23848;49.798;10.228;2023-06-24T14:39:44;3.78;;;2.47;;
26756;SDS011;23848;49.798;10.228;2023-06-24T14:42:12;4.07;;;2.92;;
26756;SDS011;23848;49.798;10.228;2023-06-24T14:44:43;4.05;;;2.72;;
26756;SDS011;23848;49.798;10.228;2023-06-24T14:47:11;4.78;;;2.92;;
26756;SDS011;23848;49.798;10.228;2023-06-24T14:49:40;4.47;;;2.80;;
26756;SDS011;23848;49.798;10.228;2023-06-24T14:52:08;4.47;;;2.53;;
26756;SDS011;23848;49.798;10.228;2023-06-24T14:54:37;3.97;;;2.85;;
26756;SDS011;23848;49.798;10.228;2023-06-24T14:57:05;5.72;;;2.80;;
26756;SDS011;23848;49.798;10.228;2023-06-24T14:59:34;5.70;;;2.95;;
26756;SDS011;23848;49.798;10.228;2023-06-24T15:02:03;4.70;;;2.70;;
26756;SDS011;23848;49.798;10.228;2023-06-24T15:04:31;4.50;;;2.90;;
26756;SDS011;23848;49.798;10.228;2023-06-24T15:07:00;4.60;;;2.75;;
26756;SDS011;23848;49.798;10.228;2023-06-24T15:09:28;4.75;;;2.60;;
26756;SDS011;23848;49.798;10.228;2023-06-24T15:11:59;3.85;;;2.92;;
26756;SDS011;23848;49.798;10.228;2023-06-24T15:14:27;3.80;;;2.42;;
26756;SDS011;23848;49.798;10.228;2023-06-24T15:16:55;5.28;;;2.55;;
26756;SDS011;23848;49.798;10.228;2023-06-24T15:19:24;4.40;;;2.45;;
26756;SDS011;23848;49.798;10.228;2023-06-24T15:21:52;3.88;;;2.50;;
26756;SDS011;23848;49.798;10.228;2023-06-24T15:24:21;3.42;;;2.58;;
26756;SDS011;23848;49.798;10.228;2023-06-24T15:26:51;4.40;;;2.78;;
26756;SDS011;23848;49.798;10.228;2023-06-24T15:29:22;4.00;;;2.80;;
26756;SDS011;23848;49.798;10.228;2023-06-24T15:31:50;4.63;;;3.15;;
26756;SDS011;23848;49.798;10.228;2023-06-24T15:34:19;3.58;;;2.25;;
26756;SDS011;23848;49.798;10.228;2023-06-24T15:36:48;3.97;;;2.65;;
26756;SDS011;23848;49.798;10.228;2023-06-24T15:39:16;5.03;;;2.60;;
26756;SDS011;23848;49.798;10.228;2023-06-24T15:41:45;5.55;;;2.63;;